createdAt,value
2018-12-19T15:03:43.831Z,23.57
2018-12-19T15:08:48.911Z,28.25
2018-12-19T15:13:53.749Z,23.00
2018-12-19T15:18:59.497Z,36.15
2018-12-19T15:24:03.999Z,22.55
2018-12-19T15:29:12.386Z,21.85
2018-12-19T15:34:19.546Z,20.85
2018-12-19T15:39:25.719Z,27.75
2018-12-19T15:44:35.355Z,17.02
2018-12-19T15:49:56.457Z,17.15
2018-12-19T15:55:03.318Z,18.30
2018-12-19T16:00:18.080Z,16.90
2018-12-19T16:05:25.009Z,27.93
2018-12-19T16:10:30.312Z,21.00
2018-12-19T16:15:37.214Z,20.23
2018-12-19T16:20:45.345Z,30.57
2018-12-19T16:25:50.032Z,26.73
2018-12-19T16:30:55.050Z,27.22
2018-12-19T16:36:00.248Z,45.25
2018-12-19T16:41:04.998Z,53.65
2018-12-19T16:46:10.179Z,42.62
2018-12-19T16:51:14.808Z,45.67
2018-12-19T16:56:19.337Z,47.35
2018-12-19T17:01:24.078Z,36.13
2018-12-19T17:06:29.268Z,37.75
2018-12-19T17:11:34.338Z,41.35
2018-12-19T17:16:39.448Z,38.10
2018-12-19T17:21:44.147Z,38.40
2018-12-19T17:26:49.378Z,34.92
2018-12-19T17:31:54.268Z,33.40
2018-12-19T17:36:59.519Z,33.55
2018-12-19T17:42:04.607Z,36.13
2018-12-19T17:47:09.173Z,33.15
2018-12-19T17:52:13.888Z,31.97
2018-12-19T17:57:18.517Z,26.52
2018-12-19T18:02:23.507Z,28.83
2018-12-19T18:07:28.658Z,29.63
2018-12-19T18:12:33.779Z,27.02
2018-12-19T18:17:38.299Z,30.43
2018-12-19T18:22:42.918Z,24.30
2018-12-19T18:27:47.618Z,26.20
2018-12-19T18:32:52.439Z,24.87
2018-12-19T18:37:57.480Z,25.50
